sensor_id;sensor_type;location;lat;lon;timestamp;pressure;altitude;pressure_sealevel;temperature;humidity
59939;BME280;45801;51.810;19.444;2022-08-21T00:01:07;98711.77;;;22.33;75.21
59939;BME280;45801;51.810;19.444;2022-08-21T00:03:35;98708.23;;;22.31;75.03
59939;BME280;45801;51.810;19.444;2022-08-21T00:06:02;98699.66;;;22.29;74.93
59939;BME280;45801;51.810;19.444;2022-08-21T00:08:28;98699.00;;;22.25;74.63
59939;BME280;45801;51.810;19.444;2022-08-21T00:10:54;98697.44;;;22.22;74.82
59939;BME280;45801;51.810;19.444;2022-08-21T00:13:20;98700.86;;;22.19;74.88
59939;BME280;45801;51.810;19.444;2022-08-21T00:15:48;98699.27;;;22.17;75.07
59939;BME280;45801;51.810;19.444;2022-08-21T00:18:15;98700.52;;;22.17;75.25
59939;BME280;45801;51.810;19.444;2022-08-21T00:20:42;98698.91;;;22.18;75.45
59939;BME280;45801;51.810;19.444;2022-08-21T00:23:09;98700.34;;;22.18;75.46
59939;BME280;45801;51.810;19.444;2022-08-21T00:25:35;98696.23;;;22.19;75.10
59939;BME280;45801;51.810;19.444;2022-08-21T00:28:01;98691.77;;;22.19;74.83
59939;BME280;45801;51.810;19.444;2022-08-21T00:30:27;98694.10;;;22.17;74.40
59939;BME280;45801;51.810;19.444;2022-08-21T00:32:54;98690.39;;;22.15;74.46
59939;BME280;45801;51.810;19.444;2022-08-21T00:35:29;98688.08;;;22.13;74.47
59939;BME280;45801;51.810;19.444;2022-08-21T00:37:56;98682.98;;;22.09;74.27
59939;BME280;45801;51.810;19.444;2022-08-21T00:40:27;98681.40;;;22.05;74.59
59939;BME280;45801;51.810;19.444;2022-08-21T00:42:53;98681.78;;;22.04;74.70
59939;BME280;45801;51.810;19.444;2022-08-21T00:45:21;98674.89;;;21.98;74.80
59939;BME280;45801;51.810;19.444;2022-08-21T00:47:47;98674.73;;;21.95;75.07
59939;BME280;45801;51.810;19.444;2022-08-21T00:50:13;98670.63;;;21.96;75.45
59939;BME280;45801;51.810;19.444;2022-08-21T00:52:39;98671.33;;;21.97;75.52
59939;BME280;45801;51.810;19.444;2022-08-21T00:55:08;98672.55;;;22.00;75.35
59939;BME280;45801;51.810;19.444;2022-08-21T00:57:55;98671.46;;;22.01;75.23
59939;BME280;45801;51.810;19.444;2022-08-21T01:00:27;98671.13;;;21.99;75.11
59939;BME280;45801;51.810;19.444;2022-08-21T01:02:56;98669.88;;;22.00;74.76
59939;BME280;45801;51.810;19.444;2022-08-21T01:05:22;98667.58;;;22.00;74.88
59939;BME280;45801;51.810;19.444;2022-08-21T01:07:48;98664.52;;;21.99;74.97
59939;BME280;45801;51.810;19.444;2022-08-21T01:10:14;98667.40;;;21.98;75.03
59939;BME280;45801;51.810;19.444;2022-08-21T01:12:40;98665.31;;;21.93;75.13
59939;BME280;45801;51.810;19.444;2022-08-21T01:15:08;98663.04;;;21.90;75.12
59939;BME280;45801;51.810;19.444;2022-08-21T01:17:35;98661.45;;;21.89;75.19
59939;BME280;45801;51.810;19.444;2022-08-21T01:20:07;98657.70;;;21.89;75.38
59939;BME280;45801;51.810;19.444;2022-08-21T01:22:35;98653.77;;;21.90;75.04
59939;BME280;45801;51.810;19.444;2022-08-21T01:25:06;98653.98;;;21.87;74.97
59939;BME280;45801;51.810;19.444;2022-08-21T01:27:32;98657.71;;;21.88;74.86
59939;BME280;45801;51.810;19.444;2022-08-21T01:30:25;98658.59;;;21.89;74.74
59939;BME280;45801;51.810;19.444;2022-08-21T01:32:49;98655.55;;;21.90;74.85
59939;BME280;45801;51.810;19.444;2022-08-21T01:35:17;98657.84;;;21.93;75.19
59939;BME280;45801;51.810;19.444;2022-08-21T01:37:44;98657.09;;;21.96;74.96
59939;BME280;45801;51.810;19.444;2022-08-21T01:40:12;98654.38;;;21.98;75.12
59939;BME280;45801;51.810;19.444;2022-08-21T01:42:38;98651.13;;;22.02;75.21
59939;BME280;45801;51.810;19.444;2022-08-21T01:45:06;98651.62;;;22.05;75.10
59939;BME280;45801;51.810;19.444;2022-08-21T01:47:32;98651.41;;;22.07;74.70
59939;BME280;45801;51.810;19.444;2022-08-21T01:49:58;98647.67;;;22.07;74.62
59939;BME280;45801;51.810;19.444;2022-08-21T01:52:24;98642.69;;;22.07;74.66
59939;BME280;45801;51.810;19.444;2022-08-21T01:54:50;98637.70;;;22.06;74.45
59939;BME280;45801;51.810;19.444;2022-08-21T01:57:16;98636.84;;;22.03;74.44
59939;BME280;45801;51.810;19.444;2022-08-21T01:59:42;98636.87;;;22.01;74.69
59939;BME280;45801;51.810;19.444;2022-08-21T02:02:08;98629.95;;;21.98;75.02
59939;BME280;45801;51.810;19.444;2022-08-21T02:04:34;98632.36;;;21.90;75.08
59939;BME280;45801;51.810;19.444;2022-08-21T02:07:00;98630.36;;;21.80;75.65
59939;BME280;45801;51.810;19.444;2022-08-21T02:09:26;98625.80;;;21.72;76.09
59939;BME280;45801;51.810;19.444;2022-08-21T02:11:52;98625.17;;;21.65;76.29
59939;BME280;45801;51.810;19.444;2022-08-21T02:14:19;98625.58;;;21.60;76.73
59939;BME280;45801;51.810;19.444;2022-08-21T02:16:45;98624.38;;;21.56;77.11
59939;BME280;45801;51.810;19.444;2022-08-21T02:19:13;98623.14;;;21.55;77.30
59939;BME280;45801;51.810;19.444;2022-08-21T02:21:41;98617.46;;;21.52;77.50
59939;BME280;45801;51.810;19.444;2022-08-21T02:24:07;98616.26;;;21.50;77.95
59939;BME280;45801;51.810;19.444;2022-08-21T02:26:34;98615.71;;;21.48;78.00
59939;BME280;45801;51.810;19.444;2022-08-21T02:29:02;98611.98;;;21.45;78.10
59939;BME280;45801;51.810;19.444;2022-08-21T02:31:28;98614.67;;;21.44;78.08
59939;BME280;45801;51.810;19.444;2022-08-21T02:33:54;98607.73;;;21.43;78.00
59939;BME280;45801;51.810;19.444;2022-08-21T02:36:20;98610.25;;;21.41;78.28
59939;BME280;45801;51.810;19.444;2022-08-21T02:38:46;98606.70;;;21.39;78.52
59939;BME280;45801;51.810;19.444;2022-08-21T02:41:14;98610.98;;;21.37;78.91
59939;BME280;45801;51.810;19.444;2022-08-21T02:43:41;98607.44;;;21.36;78.83
59939;BME280;45801;51.810;19.444;2022-08-21T02:46:08;98611.90;;;21.35;78.89
59939;BME280;45801;51.810;19.444;2022-08-21T02:48:35;98609.08;;;21.33;79.01
59939;BME280;45801;51.810;19.444;2022-08-21T02:51:05;98600.30;;;21.38;78.91
59939;BME280;45801;51.810;19.444;2022-08-21T02:53:32;98598.69;;;21.39;78.71
59939;BME280;45801;51.810;19.444;2022-08-21T02:56:00;98595.67;;;21.37;78.90
59939;BME280;45801;51.810;19.444;2022-08-21T02:58:29;98596.06;;;21.33;78.85
59939;BME280;45801;51.810;19.444;2022-08-21T03:00:55;98591.11;;;21.31;78.94
59939;BME280;45801;51.810;19.444;2022-08-21T03:03:21;98590.06;;;21.29;78.84
59939;BME280;45801;51.810;19.444;2022-08-21T03:05:48;98592.42;;;21.25;78.79
59939;BME280;45801;51.810;19.444;2022-08-21T03:08:15;98589.08;;;21.21;79.12
59939;BME280;45801;51.810;19.444;2022-08-21T03:10:46;98591.05;;;21.20;78.96
59939;BME280;45801;51.810;19.444;2022-08-21T03:13:13;98594.77;;;21.21;79.16
59939;BME280;45801;51.810;19.444;2022-08-21T03:15:40;98593.64;;;21.28;79.29
59939;BME280;45801;51.810;19.444;2022-08-21T03:18:06;98593.02;;;21.35;79.29
59939;BME280;45801;51.810;19.444;2022-08-21T03:20:34;98593.11;;;21.44;79.17
59939;BME280;45801;51.810;19.444;2022-08-21T03:23:02;98595.02;;;21.50;79.07
59939;BME280;45801;51.810;19.444;2022-08-21T03:25:29;98596.59;;;21.56;78.84
59939;BME280;45801;51.810;19.444;2022-08-21T03:27:58;98594.37;;;21.62;78.52
59939;BME280;45801;51.810;19.444;2022-08-21T03:30:24;98596.44;;;21.68;78.37
59939;BME280;45801;51.810;19.444;2022-08-21T03:32:50;98599.73;;;21.75;78.29
59939;BME280;45801;51.810;19.444;2022-08-21T03:35:17;98601.11;;;21.81;78.34
59939;BME280;45801;51.810;19.444;2022-08-21T03:37:44;98601.42;;;21.85;77.88
59939;BME280;45801;51.810;19.444;2022-08-21T03:40:11;98600.48;;;21.88;77.57
59939;BME280;45801;51.810;19.444;2022-08-21T03:42:38;98601.33;;;21.91;77.27
59939;BME280;45801;51.810;19.444;2022-08-21T03:45:05;98599.73;;;21.91;77.10
59939;BME280;45801;51.810;19.444;2022-08-21T03:47:31;98599.02;;;21.91;77.05
59939;BME280;45801;51.810;19.444;2022-08-21T03:49:56;98597.23;;;21.91;77.00
59939;BME280;45801;51.810;19.444;2022-08-21T03:52:22;98595.09;;;21.92;77.11
59939;BME280;45801;51.810;19.444;2022-08-21T03:54:49;98588.69;;;21.90;76.86
59939;BME280;45801;51.810;19.444;2022-08-21T03:57:16;98589.85;;;21.83;76.77
59939;BME280;45801;51.810;19.444;2022-08-21T03:59:42;98588.54;;;21.73;76.90
59939;BME280;45801;51.810;19.444;2022-08-21T04:02:09;98591.52;;;21.63;76.99
59939;BME280;45801;51.810;19.444;2022-08-21T04:04:36;98593.56;;;21.54;77.09
59939;BME280;45801;51.810;19.444;2022-08-21T04:07:02;98595.06;;;21.45;77.18
59939;BME280;45801;51.810;19.444;2022-08-21T04:09:28;98595.34;;;21.37;77.66
59939;BME280;45801;51.810;19.444;2022-08-21T04:11:56;98601.27;;;21.30;77.63
59939;BME280;45801;51.810;19.444;2022-08-21T04:14:22;98599.02;;;21.25;77.80
59939;BME280;45801;51.810;19.444;2022-08-21T04:16:49;98599.58;;;21.21;78.19
59939;BME280;45801;51.810;19.444;2022-08-21T04:19:15;98600.52;;;21.17;78.28
59939;BME280;45801;51.810;19.444;2022-08-21T04:21:42;98591.64;;;21.14;78.62
59939;BME280;45801;51.810;19.444;2022-08-21T04:24:09;98588.81;;;21.13;78.62
59939;BME280;45801;51.810;19.444;2022-08-21T04:26:36;98584.73;;;21.10;78.71
59939;BME280;45801;51.810;19.444;2022-08-21T04:29:03;98588.65;;;21.10;78.90
59939;BME280;45801;51.810;19.444;2022-08-21T04:31:32;98596.12;;;21.11;78.88
59939;BME280;45801;51.810;19.444;2022-08-21T04:33:58;98603.41;;;21.11;78.88
59939;BME280;45801;51.810;19.444;2022-08-21T04:36:25;98605.73;;;21.12;79.05
59939;BME280;45801;51.810;19.444;2022-08-21T04:38:50;98606.62;;;21.12;79.11
59939;BME280;45801;51.810;19.444;2022-08-21T04:41:16;98613.38;;;21.12;79.06
59939;BME280;45801;51.810;19.444;2022-08-21T04:43:42;98612.33;;;21.11;79.02
59939;BME280;45801;51.810;19.444;2022-08-21T04:46:08;98620.70;;;21.10;78.70
59939;BME280;45801;51.810;19.444;2022-08-21T04:48:34;98626.10;;;21.04;78.32
59939;BME280;45801;51.810;19.444;2022-08-21T04:51:07;98633.77;;;21.01;78.62
59939;BME280;45801;51.810;19.444;2022-08-21T04:53:45;98639.14;;;20.99;78.72
59939;BME280;45801;51.810;19.444;2022-08-21T04:56:26;98638.96;;;20.98;79.04
59939;BME280;45801;51.810;19.444;2022-08-21T04:58:57;98634.30;;;21.00;79.38
59939;BME280;45801;51.810;19.444;2022-08-21T05:01:25;98635.55;;;21.01;79.54
59939;BME280;45801;51.810;19.444;2022-08-21T05:03:54;98638.38;;;21.03;79.72
59939;BME280;45801;51.810;19.444;2022-08-21T05:06:22;98646.21;;;21.03;79.73
59939;BME280;45801;51.810;19.444;2022-08-21T05:08:51;98648.88;;;21.03;79.78
59939;BME280;45801;51.810;19.444;2022-08-21T05:11:18;98654.20;;;21.07;79.66
59939;BME280;45801;51.810;19.444;2022-08-21T05:13:45;98653.45;;;21.12;79.61
59939;BME280;45801;51.810;19.444;2022-08-21T05:16:11;98655.02;;;21.17;79.67
59939;BME280;45801;51.810;19.444;2022-08-21T05:18:37;98658.35;;;21.22;79.34
59939;BME280;45801;51.810;19.444;2022-08-21T05:21:03;98656.36;;;21.24;79.68
59939;BME280;45801;51.810;19.444;2022-08-21T05:23:29;98655.99;;;21.26;79.83
59939;BME280;45801;51.810;19.444;2022-08-21T05:25:55;98660.61;;;21.28;79.56
59939;BME280;45801;51.810;19.444;2022-08-21T05:28:21;98659.34;;;21.29;79.59
59939;BME280;45801;51.810;19.444;2022-08-21T05:30:47;98663.60;;;21.32;79.93
59939;BME280;45801;51.810;19.444;2022-08-21T05:33:14;98660.38;;;21.35;79.84
59939;BME280;45801;51.810;19.444;2022-08-21T05:35:39;98662.98;;;21.40;79.98
59939;BME280;45801;51.810;19.444;2022-08-21T05:38:06;98665.81;;;21.43;80.27
59939;BME280;45801;51.810;19.444;2022-08-21T05:40:32;98660.45;;;21.44;80.35
59939;BME280;45801;51.810;19.444;2022-08-21T05:42:58;98662.23;;;21.45;80.52
59939;BME280;45801;51.810;19.444;2022-08-21T05:45:33;98660.44;;;21.46;80.48
59939;BME280;45801;51.810;19.444;2022-08-21T05:48:08;98658.66;;;21.46;80.35
59939;BME280;45801;51.810;19.444;2022-08-21T05:50:35;98656.50;;;21.47;80.42
59939;BME280;45801;51.810;19.444;2022-08-21T05:53:04;98661.69;;;21.45;80.14
59939;BME280;45801;51.810;19.444;2022-08-21T05:55:30;98663.11;;;21.46;80.48
59939;BME280;45801;51.810;19.444;2022-08-21T05:57:55;98662.40;;;21.50;80.50
59939;BME280;45801;51.810;19.444;2022-08-21T06:00:21;98659.70;;;21.52;80.62
59939;BME280;45801;51.810;19.444;2022-08-21T06:02:49;98658.59;;;21.55;80.43
59939;BME280;45801;51.810;19.444;2022-08-21T06:05:16;98655.89;;;21.57;80.63
59939;BME280;45801;51.810;19.444;2022-08-21T06:07:43;98657.32;;;21.59;80.83
59939;BME280;45801;51.810;19.444;2022-08-21T06:10:09;98660.86;;;21.59;80.51
59939;BME280;45801;51.810;19.444;2022-08-21T06:12:35;98664.79;;;21.60;80.51
59939;BME280;45801;51.810;19.444;2022-08-21T06:15:00;98662.98;;;21.61;80.21
59939;BME280;45801;51.810;19.444;2022-08-21T06:17:26;98660.84;;;21.62;80.66
59939;BME280;45801;51.810;19.444;2022-08-21T06:19:53;98662.79;;;21.63;80.24
59939;BME280;45801;51.810;19.444;2022-08-21T06:22:19;98658.16;;;21.64;80.31
59939;BME280;45801;51.810;19.444;2022-08-21T06:24:45;98661.35;;;21.65;80.33
59939;BME280;45801;51.810;19.444;2022-08-21T06:27:11;98662.23;;;21.66;80.31
59939;BME280;45801;51.810;19.444;2022-08-21T06:29:37;98661.89;;;21.65;79.91
59939;BME280;45801;51.810;19.444;2022-08-21T06:32:04;98661.38;;;21.62;79.85
59939;BME280;45801;51.810;19.444;2022-08-21T06:34:32;98659.59;;;21.63;80.28
59939;BME280;45801;51.810;19.444;2022-08-21T06:37:02;98658.31;;;21.66;80.34
59939;BME280;45801;51.810;19.444;2022-08-21T06:39:27;98655.93;;;21.71;80.56
59939;BME280;45801;51.810;19.444;2022-08-21T06:41:53;98656.23;;;21.78;80.32
59939;BME280;45801;51.810;19.444;2022-08-21T06:44:20;98653.69;;;21.81;80.28
59939;BME280;45801;51.810;19.444;2022-08-21T06:46:46;98651.52;;;21.84;80.39
59939;BME280;45801;51.810;19.444;2022-08-21T06:49:13;98655.07;;;21.85;80.16
59939;BME280;45801;51.810;19.444;2022-08-21T06:51:40;98656.48;;;21.87;80.33
59939;BME280;45801;51.810;19.444;2022-08-21T06:54:07;98656.96;;;21.90;80.23
59939;BME280;45801;51.810;19.444;2022-08-21T06:56:34;98657.25;;;21.97;80.38
59939;BME280;45801;51.810;19.444;2022-08-21T06:59:04;98657.89;;;22.03;80.06
59939;BME280;45801;51.810;19.444;2022-08-21T07:01:31;98659.25;;;22.09;80.46
59939;BME280;45801;51.810;19.444;2022-08-21T07:03:57;98662.23;;;22.13;80.20
59939;BME280;45801;51.810;19.444;2022-08-21T07:06:23;98661.12;;;22.16;80.46
59939;BME280;45801;51.810;19.444;2022-08-21T07:08:50;98657.17;;;22.19;79.80
59939;BME280;45801;51.810;19.444;2022-08-21T07:11:21;98660.54;;;22.20;79.51
59939;BME280;45801;51.810;19.444;2022-08-21T07:13:48;98661.45;;;22.19;78.90
59939;BME280;45801;51.810;19.444;2022-08-21T07:16:14;98661.77;;;22.20;78.90
59939;BME280;45801;51.810;19.444;2022-08-21T07:18:40;98663.70;;;22.23;79.05
59939;BME280;45801;51.810;19.444;2022-08-21T07:21:07;98660.09;;;22.27;79.24
59939;BME280;45801;51.810;19.444;2022-08-21T07:23:36;98661.30;;;22.30;79.13
59939;BME280;45801;51.810;19.444;2022-08-21T07:26:03;98658.59;;;22.35;79.12
59939;BME280;45801;51.810;19.444;2022-08-21T07:28:29;98658.36;;;22.39;79.53
59939;BME280;45801;51.810;19.444;2022-08-21T07:30:57;98660.23;;;22.45;79.90
59939;BME280;45801;51.810;19.444;2022-08-21T07:33:26;98661.29;;;22.47;78.92
59939;BME280;45801;51.810;19.444;2022-08-21T07:35:52;98658.77;;;22.47;78.65
59939;BME280;45801;51.810;19.444;2022-08-21T07:38:18;98658.40;;;22.49;78.38
59939;BME280;45801;51.810;19.444;2022-08-21T07:40:45;98656.05;;;22.50;78.85
59939;BME280;45801;51.810;19.444;2022-08-21T07:43:12;98653.54;;;22.52;77.83
59939;BME280;45801;51.810;19.444;2022-08-21T07:45:37;98649.95;;;22.54;78.29
59939;BME280;45801;51.810;19.444;2022-08-21T07:48:04;98647.02;;;22.58;78.31
59939;BME280;45801;51.810;19.444;2022-08-21T07:50:30;98648.38;;;22.63;78.90
59939;BME280;45801;51.810;19.444;2022-08-21T07:52:55;98643.20;;;22.62;78.70
59939;BME280;45801;51.810;19.444;2022-08-21T07:55:22;98638.34;;;22.66;78.91
59939;BME280;45801;51.810;19.444;2022-08-21T07:57:48;98633.45;;;22.70;78.57
59939;BME280;45801;51.810;19.444;2022-08-21T08:00:19;98637.55;;;22.72;78.44
59939;BME280;45801;51.810;19.444;2022-08-21T08:02:47;98640.55;;;22.74;78.84
59939;BME280;45801;51.810;19.444;2022-08-21T08:05:18;98637.81;;;22.76;78.80
59939;BME280;45801;51.810;19.444;2022-08-21T08:07:44;98636.86;;;22.81;78.60
59939;BME280;45801;51.810;19.444;2022-08-21T08:10:11;98638.27;;;22.83;77.28
59939;BME280;45801;51.810;19.444;2022-08-21T08:12:38;98635.75;;;22.84;77.32
59939;BME280;45801;51.810;19.444;2022-08-21T08:15:06;98632.80;;;22.89;77.37
59939;BME280;45801;51.810;19.444;2022-08-21T08:17:33;98628.42;;;22.95;77.30
59939;BME280;45801;51.810;19.444;2022-08-21T08:19:59;98629.92;;;23.01;77.18
59939;BME280;45801;51.810;19.444;2022-08-21T08:22:26;98632.34;;;23.06;77.51
59939;BME280;45801;51.810;19.444;2022-08-21T08:24:53;98633.36;;;23.11;77.60
59939;BME280;45801;51.810;19.444;2022-08-21T08:27:20;98632.11;;;23.11;76.40
59939;BME280;45801;51.810;19.444;2022-08-21T08:29:47;98636.36;;;23.13;76.79
59939;BME280;45801;51.810;19.444;2022-08-21T08:32:13;98635.02;;;23.19;77.40
59939;BME280;45801;51.810;19.444;2022-08-21T08:34:39;98637.04;;;23.26;77.40
59939;BME280;45801;51.810;19.444;2022-08-21T08:37:07;98637.30;;;23.31;76.43
59939;BME280;45801;51.810;19.444;2022-08-21T08:39:34;98638.09;;;23.37;75.56
59939;BME280;45801;51.810;19.444;2022-08-21T08:42:13;98638.52;;;23.44;75.63
59939;BME280;45801;51.810;19.444;2022-08-21T08:44:44;98640.73;;;23.50;76.02
59939;BME280;45801;51.810;19.444;2022-08-21T08:47:13;98641.89;;;23.54;75.69
59939;BME280;45801;51.810;19.444;2022-08-21T08:49:49;98643.88;;;23.53;75.23
59939;BME280;45801;51.810;19.444;2022-08-21T08:52:28;98644.05;;;23.54;74.94
59939;BME280;45801;51.810;19.444;2022-08-21T08:55:09;98643.84;;;23.55;75.17
59939;BME280;45801;51.810;19.444;2022-08-21T08:57:37;98642.90;;;23.58;75.15
59939;BME280;45801;51.810;19.444;2022-08-21T09:00:09;98640.34;;;23.61;74.85
59939;BME280;45801;51.810;19.444;2022-08-21T09:02:39;98639.08;;;23.61;73.13
59939;BME280;45801;51.810;19.444;2022-08-21T09:05:54;98639.14;;;23.58;72.09
59939;BME280;45801;51.810;19.444;2022-08-21T09:08:43;98638.43;;;23.57;73.82
59939;BME280;45801;51.810;19.444;2022-08-21T09:14:08;98636.12;;;23.66;74.57
59939;BME280;45801;51.810;19.444;2022-08-21T09:25:42;98630.33;;;23.90;73.08
59939;BME280;45801;51.810;19.444;2022-08-21T09:28:11;98633.79;;;23.96;73.83
59939;BME280;45801;51.810;19.444;2022-08-21T09:30:40;98635.39;;;23.96;73.17
59939;BME280;45801;51.810;19.444;2022-08-21T09:33:07;98635.52;;;23.98;73.67
59939;BME280;45801;51.810;19.444;2022-08-21T09:35:33;98641.40;;;23.99;73.15
59939;BME280;45801;51.810;19.444;2022-08-21T09:38:04;98636.70;;;23.94;73.76
59939;BME280;45801;51.810;19.444;2022-08-21T09:40:39;98635.23;;;23.95;74.13
59939;BME280;45801;51.810;19.444;2022-08-21T09:45:35;98629.32;;;24.05;74.65
59939;BME280;45801;51.810;19.444;2022-08-21T09:48:22;98629.17;;;24.11;74.61
59939;BME280;45801;51.810;19.444;2022-08-21T09:50:50;98629.27;;;24.24;74.69
59939;BME280;45801;51.810;19.444;2022-08-21T09:53:22;98628.88;;;24.33;73.77
59939;BME280;45801;51.810;19.444;2022-08-21T09:55:53;98630.16;;;24.41;73.87
59939;BME280;45801;51.810;19.444;2022-08-21T09:58:41;98625.13;;;24.41;72.23
59939;BME280;45801;51.810;19.444;2022-08-21T10:01:14;98623.81;;;24.36;72.15
59939;BME280;45801;51.810;19.444;2022-08-21T10:03:40;98627.20;;;24.37;72.79
59939;BME280;45801;51.810;19.444;2022-08-21T10:06:08;98622.38;;;24.44;72.44
59939;BME280;45801;51.810;19.444;2022-08-21T10:08:40;98623.28;;;24.51;72.01
59939;BME280;45801;51.810;19.444;2022-08-21T10:11:12;98625.16;;;24.56;72.85
59939;BME280;45801;51.810;19.444;2022-08-21T10:13:56;98624.33;;;24.62;72.51
59939;BME280;45801;51.810;19.444;2022-08-21T10:16:48;98624.71;;;24.61;71.16
59939;BME280;45801;51.810;19.444;2022-08-21T10:20:07;98618.27;;;24.61;71.83
59939;BME280;45801;51.810;19.444;2022-08-21T10:22:32;98619.44;;;24.64;71.14
59939;BME280;45801;51.810;19.444;2022-08-21T10:28:10;98618.19;;;24.79;71.40
59939;BME280;45801;51.810;19.444;2022-08-21T10:30:59;98610.80;;;24.88;69.65
59939;BME280;45801;51.810;19.444;2022-08-21T10:33:38;98607.93;;;24.96;69.55
59939;BME280;45801;51.810;19.444;2022-08-21T10:36:58;98609.02;;;25.02;67.94
59939;BME280;45801;51.810;19.444;2022-08-21T10:39:47;98612.34;;;24.99;68.76
59939;BME280;45801;51.810;19.444;2022-08-21T10:47:46;98608.15;;;25.08;70.32
59939;BME280;45801;51.810;19.444;2022-08-21T10:50:25;98607.35;;;25.11;69.88
59939;BME280;45801;51.810;19.444;2022-08-21T10:53:10;98608.42;;;25.12;68.44
59939;BME280;45801;51.810;19.444;2022-08-21T10:55:44;98609.36;;;25.09;67.58
59939;BME280;45801;51.810;19.444;2022-08-21T10:59:02;98610.66;;;25.01;66.23
59939;BME280;45801;51.810;19.444;2022-08-21T11:01:25;98608.10;;;24.96;68.51
59939;BME280;45801;51.810;19.444;2022-08-21T11:04:11;98607.47;;;24.93;67.83
59939;BME280;45801;51.810;19.444;2022-08-21T11:06:42;98601.22;;;24.92;69.15
59939;BME280;45801;51.810;19.444;2022-08-21T11:09:14;98602.56;;;24.95;69.12
59939;BME280;45801;51.810;19.444;2022-08-21T11:17:13;98605.73;;;25.05;69.00
59939;BME280;45801;51.810;19.444;2022-08-21T11:22:47;98606.33;;;25.03;66.95
59939;BME280;45801;51.810;19.444;2022-08-21T11:25:27;98608.33;;;24.94;66.50
59939;BME280;45801;51.810;19.444;2022-08-21T11:28:05;98606.91;;;24.86;67.81
59939;BME280;45801;51.810;19.444;2022-08-21T11:30:44;98606.23;;;24.85;68.56
59939;BME280;45801;51.810;19.444;2022-08-21T11:33:34;98600.90;;;24.82;66.70
59939;BME280;45801;51.810;19.444;2022-08-21T11:42:05;98605.20;;;24.90;67.55
59939;BME280;45801;51.810;19.444;2022-08-21T11:47:56;98609.45;;;24.93;67.28
59939;BME280;45801;51.810;19.444;2022-08-21T11:50:28;98606.86;;;24.88;64.93
59939;BME280;45801;51.810;19.444;2022-08-21T11:53:01;98608.34;;;24.86;66.03
59939;BME280;45801;51.810;19.444;2022-08-21T11:55:33;98606.95;;;24.84;67.37
59939;BME280;45801;51.810;19.444;2022-08-21T12:00:32;98615.65;;;24.87;67.06
59939;BME280;45801;51.810;19.444;2022-08-21T12:03:08;98616.19;;;24.87;67.70
59939;BME280;45801;51.810;19.444;2022-08-21T12:05:41;98618.36;;;24.86;67.67
59939;BME280;45801;51.810;19.444;2022-08-21T12:08:15;98621.77;;;24.86;67.48
59939;BME280;45801;51.810;19.444;2022-08-21T12:13:33;98623.20;;;24.87;67.41
59939;BME280;45801;51.810;19.444;2022-08-21T12:16:11;98616.84;;;24.90;67.69
59939;BME280;45801;51.810;19.444;2022-08-21T12:18:38;98614.67;;;24.91;67.81
59939;BME280;45801;51.810;19.444;2022-08-21T12:21:26;98619.80;;;24.94;67.97
59939;BME280;45801;51.810;19.444;2022-08-21T12:26:35;98618.85;;;24.97;66.49
59939;BME280;45801;51.810;19.444;2022-08-21T12:29:33;98617.52;;;24.93;66.01
59939;BME280;45801;51.810;19.444;2022-08-21T12:37:34;98613.98;;;24.97;67.04
59939;BME280;45801;51.810;19.444;2022-08-21T12:40:04;98611.26;;;25.05;67.18
59939;BME280;45801;51.810;19.444;2022-08-21T12:42:41;98612.31;;;25.14;65.90
59939;BME280;45801;51.810;19.444;2022-08-21T12:45:43;98609.15;;;25.18;65.77
59939;BME280;45801;51.810;19.444;2022-08-21T12:48:18;98606.11;;;25.18;63.52
59939;BME280;45801;51.810;19.444;2022-08-21T12:50:52;98606.78;;;25.19;64.46
59939;BME280;45801;51.810;19.444;2022-08-21T12:56:11;98604.63;;;25.19;63.58
59939;BME280;45801;51.810;19.444;2022-08-21T12:58:40;98603.75;;;25.19;65.14
59939;BME280;45801;51.810;19.444;2022-08-21T13:01:33;98601.95;;;25.19;65.27
59939;BME280;45801;51.810;19.444;2022-08-21T13:04:08;98599.09;;;25.19;64.96
59939;BME280;45801;51.810;19.444;2022-08-21T13:06:44;98595.84;;;25.20;65.63
59939;BME280;45801;51.810;19.444;2022-08-21T13:09:13;98598.56;;;25.26;66.75
59939;BME280;45801;51.810;19.444;2022-08-21T13:11:42;98590.92;;;25.31;66.55
59939;BME280;45801;51.810;19.444;2022-08-21T13:14:39;98592.02;;;25.37;65.67
59939;BME280;45801;51.810;19.444;2022-08-21T13:17:07;98583.90;;;25.39;64.89
59939;BME280;45801;51.810;19.444;2022-08-21T13:19:34;98584.03;;;25.41;65.60
59939;BME280;45801;51.810;19.444;2022-08-21T13:22:01;98585.41;;;25.44;64.92
59939;BME280;45801;51.810;19.444;2022-08-21T13:24:32;98586.63;;;25.44;65.05
59939;BME280;45801;51.810;19.444;2022-08-21T13:26:59;98586.21;;;25.46;64.85
59939;BME280;45801;51.810;19.444;2022-08-21T13:29:33;98589.33;;;25.44;64.62
59939;BME280;45801;51.810;19.444;2022-08-21T13:32:03;98592.17;;;25.38;64.54
59939;BME280;45801;51.810;19.444;2022-08-21T13:34:33;98595.23;;;25.32;64.26
59939;BME280;45801;51.810;19.444;2022-08-21T13:37:07;98595.62;;;25.29;65.65
59939;BME280;45801;51.810;19.444;2022-08-21T13:39:34;98593.67;;;25.28;65.35
59939;BME280;45801;51.810;19.444;2022-08-21T13:42:02;98596.04;;;25.27;65.40
59939;BME280;45801;51.810;19.444;2022-08-21T13:44:35;98596.98;;;25.25;64.43
59939;BME280;45801;51.810;19.444;2022-08-21T13:47:04;98597.70;;;25.24;64.52
59939;BME280;45801;51.810;19.444;2022-08-21T13:49:33;98597.17;;;25.23;65.14
59939;BME280;45801;51.810;19.444;2022-08-21T13:51:59;98593.60;;;25.23;65.03
59939;BME280;45801;51.810;19.444;2022-08-21T13:54:36;98596.85;;;25.22;64.78
59939;BME280;45801;51.810;19.444;2022-08-21T13:57:04;98596.89;;;25.21;64.50
59939;BME280;45801;51.810;19.444;2022-08-21T13:59:35;98597.11;;;25.19;64.77
59939;BME280;45801;51.810;19.444;2022-08-21T14:02:12;98594.27;;;25.18;64.48